createdAt,value
2023-02-04T00:00:38.843Z,13.60
2023-02-04T00:03:07.378Z,8.80
2023-02-04T00:05:37.104Z,7.80
2023-02-04T00:08:05.776Z,6.60
2023-02-04T00:10:34.252Z,8.45
2023-02-04T00:13:02.443Z,7.32
2023-02-04T00:15:31.230Z,5.93
2023-02-04T00:17:59.218Z,6.43
2023-02-04T00:20:27.455Z,6.70
2023-02-04T00:22:57.234Z,7.78
2023-02-04T00:25:25.746Z,7.70
2023-02-04T00:27:53.780Z,7.35
2023-02-04T00:30:22.070Z,6.25
2023-02-04T00:32:54.818Z,7.32
2023-02-04T00:35:23.106Z,7.47
2023-02-04T00:37:53.548Z,8.15
2023-02-04T00:40:23.294Z,7.85
2023-02-04T00:42:51.241Z,7.20
2023-02-04T00:45:19.551Z,6.50
2023-02-04T00:47:47.622Z,6.47
2023-02-04T00:50:16.065Z,5.82
2023-02-04T00:52:44.954Z,5.68
2023-02-04T00:55:13.727Z,5.18
2023-02-04T00:57:43.057Z,4.90
2023-02-04T01:00:12.409Z,4.88
2023-02-04T01:02:41.416Z,7.95
2023-02-04T01:05:10.420Z,6.18
2023-02-04T01:07:38.913Z,4.05
2023-02-04T01:10:07.397Z,4.97
2023-02-04T01:12:35.748Z,2.85
2023-02-04T01:15:06.085Z,4.72
2023-02-04T01:17:34.090Z,3.28
2023-02-04T01:20:02.607Z,3.22
2023-02-04T01:22:30.678Z,1.80
2023-02-04T01:24:58.994Z,2.10
2023-02-04T01:27:41.873Z,2.45
2023-02-04T01:30:13.459Z,2.45
2023-02-04T01:32:41.456Z,2.58
2023-02-04T01:35:10.258Z,2.85
2023-02-04T01:37:38.437Z,2.22
2023-02-04T01:40:07.492Z,2.45
2023-02-04T01:42:36.576Z,3.35
2023-02-04T01:45:06.272Z,1.70
2023-02-04T01:47:37.597Z,4.40
2023-02-04T01:50:08.364Z,4.60
2023-02-04T01:52:40.073Z,4.03
2023-02-04T01:55:14.437Z,2.30
2023-02-04T01:57:43.154Z,2.63
2023-02-04T02:00:17.146Z,2.65
2023-02-04T02:02:48.296Z,4.65
2023-02-04T02:05:21.921Z,4.43
2023-02-04T02:07:51.933Z,5.53
2023-02-04T02:10:21.032Z,6.35
2023-02-04T02:12:49.647Z,1.85
2023-02-04T02:15:18.575Z,4.80
2023-02-04T02:17:48.625Z,2.38
2023-02-04T02:20:19.065Z,2.60
2023-02-04T02:22:57.324Z,2.88
2023-02-04T02:25:27.131Z,2.75
2023-02-04T02:27:56.273Z,1.90
2023-02-04T02:30:24.392Z,1.45
2023-02-04T02:32:54.061Z,3.08
2023-02-04T02:35:23.082Z,1.67
2023-02-04T02:37:51.127Z,1.50
2023-02-04T02:40:20.034Z,3.17
2023-02-04T02:42:52.823Z,8.73
2023-02-04T02:45:25.310Z,2.80
2023-02-04T02:47:54.245Z,4.75
2023-02-04T02:50:25.942Z,2.10
2023-02-04T02:52:54.128Z,3.28
2023-02-04T02:55:25.334Z,8.82
2023-02-04T02:57:56.734Z,3.28
2023-02-04T03:00:28.333Z,2.15
2023-02-04T03:03:02.133Z,4.57
2023-02-04T03:05:33.581Z,2.60
2023-02-04T03:08:12.311Z,3.22
2023-02-04T03:10:40.564Z,9.10
2023-02-04T03:13:11.060Z,3.88
2023-02-04T03:15:39.507Z,7.60
2023-02-04T03:18:08.181Z,3.85
2023-02-04T03:20:38.432Z,5.07
2023-02-04T03:23:06.438Z,8.48
2023-02-04T03:25:35.248Z,4.13
2023-02-04T03:28:03.524Z,5.65
2023-02-04T03:30:33.737Z,8.32
2023-02-04T03:33:02.220Z,6.85
2023-02-04T03:35:30.307Z,11.05
2023-02-04T03:38:00.715Z,4.32
2023-02-04T03:40:30.335Z,9.57
2023-02-04T03:42:58.613Z,7.35
2023-02-04T03:45:28.511Z,9.30
2023-02-04T03:48:02.290Z,9.38
2023-02-04T03:50:30.948Z,14.60
2023-02-04T03:52:59.206Z,8.77
2023-02-04T03:55:27.631Z,6.18
2023-02-04T03:57:55.689Z,5.80
2023-02-04T04:00:23.844Z,8.18
2023-02-04T04:02:52.428Z,4.97
2023-02-04T04:05:22.073Z,5.82
2023-02-04T04:07:50.349Z,4.65
2023-02-04T04:10:18.603Z,4.35
2023-02-04T04:12:46.817Z,6.75
2023-02-04T04:15:14.888Z,5.63
2023-02-04T04:17:44.783Z,6.13
2023-02-04T04:20:13.546Z,4.47
2023-02-04T04:22:43.167Z,6.25
2023-02-04T04:25:11.233Z,5.75
2023-02-04T04:27:39.384Z,7.45
2023-02-04T04:30:08.081Z,4.93
2023-02-04T04:32:36.294Z,4.00
2023-02-04T04:35:05.161Z,7.20
2023-02-04T04:37:34.933Z,5.65
2023-02-04T04:40:05.209Z,3.83
2023-02-04T04:42:33.402Z,4.82
2023-02-04T04:45:01.626Z,6.43
2023-02-04T04:47:29.710Z,7.43
2023-02-04T04:49:57.778Z,4.80
2023-02-04T04:52:26.325Z,9.57
2023-02-04T04:54:54.422Z,4.60
2023-02-04T04:57:24.050Z,5.22
2023-02-04T04:59:52.291Z,6.82
2023-02-04T05:02:20.344Z,5.20
2023-02-04T05:04:48.603Z,4.07
2023-02-04T05:07:16.752Z,5.40
2023-02-04T05:09:45.136Z,5.63
2023-02-04T05:12:13.295Z,4.57
2023-02-04T05:14:42.859Z,6.15
2023-02-04T05:17:11.624Z,5.03
2023-02-04T05:19:39.742Z,11.88
2023-02-04T05:22:07.776Z,5.20
2023-02-04T05:24:35.801Z,5.72
2023-02-04T05:27:03.988Z,5.68
2023-02-04T05:29:32.072Z,9.73
2023-02-04T05:32:01.740Z,9.00
2023-02-04T05:34:29.888Z,7.40
2023-02-04T05:36:57.896Z,9.38
2023-02-04T05:39:26.117Z,10.30
2023-02-04T05:41:54.271Z,8.73
2023-02-04T05:44:22.493Z,8.57
2023-02-04T05:46:50.692Z,13.00
2023-02-04T05:49:20.357Z,8.65
2023-02-04T05:51:48.695Z,12.93
2023-02-04T05:54:19.801Z,11.50
2023-02-04T05:56:48.423Z,12.25
2023-02-04T05:59:16.598Z,9.68
2023-02-04T06:01:44.806Z,10.40
2023-02-04T06:04:12.996Z,11.13
2023-02-04T06:06:42.411Z,12.85
2023-02-04T06:09:11.703Z,12.80
2023-02-04T06:11:39.893Z,13.77
2023-02-04T06:14:08.198Z,11.27
2023-02-04T06:16:36.627Z,16.27
2023-02-04T06:19:04.965Z,16.45
2023-02-04T06:21:33.128Z,12.95
2023-02-04T06:24:03.837Z,14.63
2023-02-04T06:26:32.833Z,12.32
2023-02-04T06:29:01.318Z,11.45
2023-02-04T06:31:29.913Z,11.25
2023-02-04T06:33:58.170Z,16.33
2023-02-04T06:36:26.293Z,13.10
2023-02-04T06:38:54.421Z,19.17
2023-02-04T06:41:24.194Z,13.48
2023-02-04T06:43:52.434Z,15.95
2023-02-04T06:46:20.654Z,13.68
2023-02-04T06:48:49.067Z,13.32
2023-02-04T06:51:17.382Z,11.95
2023-02-04T06:53:46.005Z,11.77
2023-02-04T06:56:14.983Z,14.77
2023-02-04T06:58:44.575Z,14.20
2023-02-04T07:01:12.864Z,18.30
2023-02-04T07:03:40.872Z,16.05
2023-02-04T07:06:09.249Z,12.93
2023-02-04T07:08:37.316Z,11.23
2023-02-04T07:11:05.530Z,16.10
2023-02-04T07:13:33.713Z,17.05
2023-02-04T07:16:03.257Z,17.23
2023-02-04T07:18:31.518Z,16.60
2023-02-04T07:20:59.754Z,17.65
2023-02-04T07:23:28.730Z,14.55
2023-02-04T07:25:59.408Z,14.93
2023-02-04T07:28:27.993Z,14.23
2023-02-04T07:30:56.846Z,18.65
2023-02-04T07:33:26.288Z,14.27
2023-02-04T07:35:54.806Z,19.40
2023-02-04T07:38:22.974Z,18.45
2023-02-04T07:40:51.293Z,12.82
2023-02-04T07:43:19.466Z,12.80
2023-02-04T07:45:47.685Z,20.52
2023-02-04T07:48:15.956Z,17.15
2023-02-04T07:50:46.221Z,18.42
2023-02-04T07:53:15.079Z,19.45
2023-02-04T07:55:43.774Z,15.75
2023-02-04T07:58:12.401Z,16.98
2023-02-04T08:00:40.592Z,21.63
2023-02-04T08:03:08.921Z,14.68
2023-02-04T08:05:37.308Z,11.95
2023-02-04T08:08:07.161Z,11.95
2023-02-04T08:10:35.863Z,12.15
2023-02-04T08:13:04.189Z,14.38
2023-02-04T08:15:32.884Z,16.38
2023-02-04T08:18:01.310Z,16.67
2023-02-04T08:20:30.183Z,13.68
2023-02-04T08:22:58.732Z,16.75
2023-02-04T08:25:29.870Z,15.70
2023-02-04T08:27:58.370Z,21.95
2023-02-04T08:30:33.373Z,15.32
2023-02-04T08:33:02.108Z,11.45
2023-02-04T08:35:30.679Z,12.93
2023-02-04T08:37:59.033Z,13.73
2023-02-04T08:40:28.951Z,13.25
2023-02-04T08:42:57.593Z,15.48
2023-02-04T08:45:26.588Z,11.85
2023-02-04T08:47:55.072Z,13.73
2023-02-04T08:50:23.716Z,16.85
2023-02-04T08:52:52.091Z,14.60
2023-02-04T08:55:20.446Z,14.68
2023-02-04T08:57:50.242Z,14.93
2023-02-04T09:00:19.139Z,8.75
2023-02-04T09:02:47.440Z,13.98
2023-02-04T09:05:15.952Z,10.60
2023-02-04T09:07:44.466Z,11.52
2023-02-04T09:10:12.932Z,15.88
2023-02-04T09:12:42.252Z,15.75
2023-02-04T09:15:13.878Z,15.02
2023-02-04T09:17:44.010Z,11.25
2023-02-04T09:20:13.059Z,13.63
2023-02-04T09:22:41.549Z,14.35
2023-02-04T09:28:23.292Z,15.45
2023-02-04T09:31:18.924Z,11.63
2023-02-04T09:33:52.188Z,13.05
2023-02-04T09:36:33.065Z,11.68
2023-02-04T09:43:04.672Z,12.85
2023-02-04T10:45:30.935Z,7.57
2023-02-04T10:48:00.633Z,8.38
2023-02-04T10:50:30.713Z,8.75
2023-02-04T10:53:14.968Z,8.27
2023-02-04T10:55:45.227Z,5.75
2023-02-04T10:58:16.349Z,4.75
2023-02-04T11:00:44.554Z,11.25
2023-02-04T11:03:20.685Z,9.68
2023-02-04T11:05:48.906Z,6.45
2023-02-04T11:08:25.012Z,8.10
2023-02-04T11:10:56.298Z,3.92
2023-02-04T11:13:27.026Z,5.50
2023-02-04T11:16:12.156Z,7.38
2023-02-04T11:18:51.140Z,9.65
2023-02-04T11:21:28.384Z,8.48
2023-02-04T11:24:21.024Z,6.35
2023-02-04T11:26:51.730Z,5.72
2023-02-04T11:29:35.024Z,5.80
2023-02-04T11:32:07.013Z,4.30
2023-02-04T11:34:52.995Z,12.43
2023-02-04T11:37:38.316Z,6.65
2023-02-04T11:40:31.880Z,6.97
2023-02-04T11:43:05.627Z,5.63
2023-02-04T11:45:35.653Z,6.80
2023-02-04T11:48:12.610Z,5.18
2023-02-04T11:50:42.887Z,5.22
2023-02-04T11:53:12.282Z,5.57
2023-02-04T11:55:47.743Z,5.65
2023-02-04T11:58:17.589Z,7.60
2023-02-04T12:00:46.254Z,4.65
2023-02-04T12:03:24.448Z,4.55
2023-02-04T12:05:56.200Z,8.55
2023-02-04T12:08:33.095Z,4.97
2023-02-04T12:11:08.459Z,2.60
2023-02-04T12:13:48.255Z,6.00
2023-02-04T12:16:17.150Z,5.65
2023-02-04T12:18:45.288Z,6.18
2023-02-04T12:21:15.557Z,5.35
2023-02-04T12:23:44.217Z,6.55
2023-02-04T12:26:12.759Z,4.60
2023-02-04T12:28:41.033Z,6.63
2023-02-04T12:31:09.437Z,4.95
2023-02-04T12:33:37.898Z,5.53
2023-02-04T12:36:06.962Z,7.75
2023-02-04T12:38:36.553Z,3.35
2023-02-04T12:41:05.012Z,6.68
2023-02-04T12:43:33.049Z,7.72
2023-02-04T12:46:01.268Z,5.78
2023-02-04T12:48:29.720Z,9.07
2023-02-04T12:50:57.991Z,5.25
2023-02-04T12:53:26.036Z,6.70
2023-02-04T12:55:57.692Z,3.13
2023-02-04T12:58:25.958Z,8.25
2023-02-04T13:00:54.321Z,3.47
2023-02-04T13:03:23.706Z,4.53
2023-02-04T13:05:51.792Z,3.92
2023-02-04T13:08:19.754Z,5.82
2023-02-04T13:10:51.756Z,3.58
2023-02-04T13:13:21.900Z,6.18
2023-02-04T13:15:50.218Z,7.50
2023-02-04T13:18:19.101Z,9.32
2023-02-04T13:20:47.388Z,9.70
2023-02-04T13:23:15.406Z,6.63
2023-02-04T13:25:44.403Z,9.13
2023-02-04T13:28:12.627Z,4.65
2023-02-04T13:30:42.195Z,8.77
2023-02-04T13:33:10.628Z,8.45
2023-02-04T13:35:38.563Z,7.10
2023-02-04T13:38:06.762Z,6.20
2023-02-04T13:40:34.844Z,3.78
2023-02-04T13:43:02.928Z,6.55
2023-02-04T13:45:31.547Z,3.13
2023-02-04T13:48:01.243Z,7.25
2023-02-04T13:50:29.567Z,3.95
2023-02-04T13:52:57.600Z,6.05
2023-02-04T13:55:25.815Z,3.92
2023-02-04T13:57:53.942Z,5.70
2023-02-04T14:00:22.007Z,8.32
2023-02-04T14:02:50.191Z,4.55
2023-02-04T14:05:19.533Z,6.13
2023-02-04T14:07:47.563Z,7.72
2023-02-04T14:10:15.738Z,6.05
2023-02-04T14:12:43.732Z,15.55
2023-02-04T14:15:12.012Z,10.15
2023-02-04T14:17:40.228Z,11.05
2023-02-04T14:20:09.440Z,11.57
2023-02-04T14:22:39.047Z,10.65
2023-02-04T14:25:07.842Z,7.72
2023-02-04T14:27:36.240Z,5.15
2023-02-04T14:30:05.718Z,4.97
2023-02-04T14:32:33.978Z,10.13
2023-02-04T14:35:02.156Z,7.32
2023-02-04T14:37:30.088Z,7.40
2023-02-04T14:40:01.835Z,3.92
2023-02-04T14:42:30.690Z,5.22
2023-02-04T14:44:58.959Z,6.15
2023-02-04T14:47:27.128Z,8.70
2023-02-04T14:49:57.057Z,6.47
2023-02-04T14:52:27.900Z,6.57
2023-02-04T14:54:58.016Z,7.75
2023-02-04T14:57:28.162Z,12.77
2023-02-04T14:59:56.615Z,7.45
2023-02-04T15:02:26.968Z,7.68
2023-02-04T15:04:58.434Z,7.78
2023-02-04T15:07:28.968Z,8.77
2023-02-04T15:09:58.096Z,8.60
2023-02-04T15:12:28.194Z,9.02
2023-02-04T15:14:57.130Z,4.95
2023-02-04T15:17:29.043Z,7.43
2023-02-04T15:19:59.366Z,7.85
2023-02-04T15:22:29.749Z,7.78
2023-02-04T15:24:59.877Z,4.75
2023-02-04T15:27:33.217Z,4.70
2023-02-04T15:30:02.846Z,5.10
2023-02-04T15:32:33.379Z,4.78
2023-02-04T15:35:02.951Z,7.55
2023-02-04T15:37:31.336Z,7.00
2023-02-04T15:40:01.245Z,7.03
2023-02-04T15:42:31.603Z,7.65
2023-02-04T15:45:00.579Z,5.57
2023-02-04T15:47:29.141Z,10.02
2023-02-04T15:49:58.922Z,4.00
2023-02-04T15:52:29.517Z,8.30
2023-02-04T15:55:00.398Z,10.68
2023-02-04T15:57:29.289Z,5.43
2023-02-04T16:00:03.379Z,5.93
2023-02-04T16:02:35.162Z,6.85
2023-02-04T16:05:04.679Z,9.15
2023-02-04T16:07:35.195Z,8.30
2023-02-04T16:10:04.719Z,7.70
2023-02-04T16:12:34.229Z,8.73
2023-02-04T16:15:07.109Z,8.70
2023-02-04T16:17:36.020Z,4.45
2023-02-04T16:20:07.353Z,4.80
2023-02-04T16:22:39.583Z,3.33
2023-02-04T16:25:09.498Z,7.55
2023-02-04T16:27:37.964Z,7.05
2023-02-04T16:30:09.959Z,7.18
2023-02-04T16:32:41.807Z,6.90
2023-02-04T16:35:11.544Z,5.03
2023-02-04T17:09:54.361Z,7.93
2023-02-04T17:20:23.145Z,3.88
2023-02-04T17:37:06.467Z,5.28
2023-02-04T17:52:35.529Z,5.53
2023-02-04T17:55:20.911Z,5.72
2023-02-04T17:57:56.980Z,6.15
2023-02-04T18:00:33.877Z,4.88
2023-02-04T18:03:04.789Z,7.43
2023-02-04T18:05:37.917Z,4.75
2023-02-04T18:08:18.858Z,16.48
2023-02-04T18:10:49.785Z,10.38
2023-02-04T18:13:20.261Z,5.07
2023-02-04T18:15:56.606Z,10.60
2023-02-04T18:18:29.104Z,8.93
2023-02-04T18:21:00.632Z,3.38
2023-02-04T18:23:36.638Z,10.05
2023-02-04T18:26:17.819Z,9.75
2023-02-04T18:28:50.432Z,5.85
2023-02-04T18:31:29.672Z,7.40
2023-02-04T18:33:59.350Z,9.35
2023-02-04T18:36:28.547Z,16.90
2023-02-04T18:39:02.579Z,4.50
2023-02-04T18:41:34.158Z,6.57
2023-02-04T18:44:20.764Z,8.52
2023-02-04T18:46:50.415Z,8.77
2023-02-04T18:49:28.491Z,13.57
2023-02-04T18:52:01.352Z,8.32
2023-02-04T18:54:39.165Z,12.80
2023-02-04T18:57:37.780Z,13.18
2023-02-04T19:00:35.972Z,8.05
2023-02-04T19:03:26.966Z,7.53
2023-02-04T19:05:59.727Z,9.18
2023-02-04T19:08:30.447Z,9.27
2023-02-04T19:11:04.814Z,7.18
2023-02-04T19:13:45.141Z,8.95
2023-02-04T19:16:24.483Z,8.68
2023-02-04T19:18:56.891Z,9.85
2023-02-04T19:21:31.413Z,5.88
2023-02-04T19:24:16.285Z,5.40
2023-02-04T19:26:56.166Z,8.75
2023-02-04T19:29:45.251Z,6.68
2023-02-04T19:32:33.847Z,11.98
2023-02-04T19:35:18.590Z,7.13
2023-02-04T19:37:56.922Z,7.47
2023-02-04T19:40:32.124Z,14.13
2023-02-04T19:43:22.913Z,11.20
2023-02-04T19:45:55.562Z,11.23
2023-02-04T19:48:36.754Z,11.10
2023-02-04T19:51:24.502Z,10.75
2023-02-04T19:53:59.766Z,14.13
2023-02-04T19:56:33.038Z,11.65
2023-02-04T19:59:19.501Z,11.15
2023-02-04T20:01:49.524Z,16.23
2023-02-04T20:04:21.843Z,13.30
2023-02-04T20:06:53.069Z,17.63
2023-02-04T20:09:25.793Z,8.40
2023-02-04T20:12:01.378Z,17.48
2023-02-04T20:14:52.984Z,14.38
2023-02-04T20:17:48.078Z,12.93
2023-02-04T20:20:22.903Z,6.90
2023-02-04T20:22:57.110Z,10.32
2023-02-04T20:25:46.428Z,13.10
2023-02-04T20:28:27.934Z,13.48
2023-02-04T20:31:03.262Z,10.07
2023-02-04T20:33:47.981Z,8.25
2023-02-04T20:36:41.674Z,17.00
2023-02-04T20:39:29.621Z,15.30
2023-02-04T20:42:43.210Z,16.85
2023-02-04T20:45:30.019Z,15.05
2023-02-04T20:48:01.755Z,12.00
2023-02-04T20:50:41.585Z,10.57
2023-02-04T20:53:24.204Z,15.45
2023-02-04T20:55:55.703Z,18.38
2023-02-04T20:58:25.481Z,14.35
2023-02-04T21:00:56.010Z,14.32
2023-02-04T21:03:28.765Z,14.93
2023-02-04T21:05:58.730Z,16.27
2023-02-04T21:08:29.864Z,13.65
2023-02-04T21:10:58.521Z,11.82
2023-02-04T21:13:26.640Z,16.08
2023-02-04T21:15:55.485Z,21.27
2023-02-04T21:18:23.934Z,16.63
2023-02-04T21:20:53.556Z,12.20
2023-02-04T21:23:21.784Z,14.27
2023-02-04T21:25:49.875Z,14.13
2023-02-04T21:28:19.658Z,12.57
2023-02-04T21:30:47.909Z,13.68
2023-02-04T21:33:17.218Z,15.77
2023-02-04T21:35:45.412Z,21.77
2023-02-04T21:38:14.901Z,17.08
2023-02-04T21:40:43.437Z,15.38
2023-02-04T21:43:11.957Z,18.35
2023-02-04T21:45:45.250Z,21.35
2023-02-04T21:48:20.862Z,17.05
2023-02-04T21:50:56.405Z,14.38
2023-02-04T21:53:27.361Z,15.85
2023-02-04T21:56:01.954Z,14.77
2023-02-04T21:58:31.803Z,14.10
2023-02-04T22:01:04.281Z,10.75
2023-02-04T22:03:35.094Z,13.63
2023-02-04T22:06:07.049Z,12.18
2023-02-04T22:08:36.895Z,16.52
2023-02-04T22:11:05.815Z,10.80
2023-02-04T22:13:52.747Z,15.27
2023-02-04T22:16:21.719Z,11.50
2023-02-04T22:18:50.593Z,13.80
2023-02-04T22:21:22.353Z,14.52
2023-02-04T22:23:55.644Z,17.27
2023-02-04T22:26:24.836Z,13.25
2023-02-04T22:28:53.506Z,14.95
2023-02-04T22:31:23.830Z,10.02
2023-02-04T22:33:52.677Z,16.33
2023-02-04T22:36:25.405Z,10.60
2023-02-04T22:39:00.452Z,13.43
2023-02-04T22:41:30.731Z,10.00
2023-02-04T22:43:58.834Z,9.80
2023-02-04T22:46:29.370Z,10.50
2023-02-04T22:48:57.902Z,17.83
2023-02-04T22:51:26.225Z,12.70
2023-02-04T22:53:54.348Z,11.20
2023-02-04T22:56:24.182Z,8.13
2023-02-04T22:58:53.061Z,10.30
2023-02-04T23:01:21.264Z,12.15
2023-02-04T23:03:50.117Z,11.23
2023-02-04T23:06:18.648Z,11.43
2023-02-04T23:08:48.697Z,13.77
2023-02-04T23:11:18.485Z,6.80
2023-02-04T23:13:48.205Z,14.48
2023-02-04T23:16:16.372Z,9.85
2023-02-04T23:18:44.587Z,8.73
2023-02-04T23:21:12.814Z,11.38
2023-02-04T23:23:41.358Z,8.80
2023-02-04T23:26:09.819Z,12.52
2023-02-04T23:28:37.927Z,15.20
2023-02-04T23:31:07.470Z,16.00
2023-02-04T23:33:35.665Z,11.13
2023-02-04T23:36:03.976Z,11.52
2023-02-04T23:38:32.126Z,9.00
2023-02-04T23:41:00.452Z,11.30
2023-02-04T23:43:29.158Z,13.00
2023-02-04T23:45:57.846Z,10.52
2023-02-04T23:48:27.502Z,8.48
2023-02-04T23:50:58.196Z,7.63
2023-02-04T23:53:26.346Z,9.15
2023-02-04T23:55:54.443Z,9.98
2023-02-04T23:58:22.911Z,8.25
